LiveATC.Net - Listen to live air traffic control over the Internet!


ICAO: KGTU  IATA: GTU   Airport: Georgetown Municipal Airport
City: Georgetown   State/Province: Texas
Country: United States   Continent: North America
KGTU METAR Weather: KGTU 040556Z AUTO 30003KT 10SM CLR 01/M02 A3031 RMK AO2 SLP268 T00111017 10078 20011 401280006 50003 FZRANO
KGTU Flight Activity (FlightAware)
KGTU Airport Info   (iFlightPlanner)
KGTU VFR Sectional Chart   (iFlightPlanner) 
KGTU IFR Low Chart   (iFlightPlanner) 

KGTU Gnd/Twr
Feed Status: UP   Listeners: 0
Listen in your browser - HTML5 player (in browser, HTML5)
Click here to listen with your own player (launches your MP3 player)
Archive Access: KGTU Gnd/Twr
FacilityFrequency
Georgetown Ground119.125
Georgetown Tower120.225

NOTICE

Unauthorized use prohibited. See LiveATC.net Terms of Service


Airport/ARTCC Code
Frequency Search
(e.g., 124.400, 128.75)
Site-wide search
 


Browse Feeds
Top 50 Feeds
Coverage Map
Bad Weather Areas

LiveATC FAQ
Offer LiveATC feed
Contact LiveATC.net
Press Inquiries

LiveATC on iPhone
LiveATC on Android

Windows Phone
Windows 8/10

LiveATC Mobile
(Mobile browser)

ATC Audio Archives
Interesting Recordings

LiveATC Forums


Home Page
About LiveATC.net
Make a Donation
Terms of Use
Privacy Policy

Canadian Air Freqs

AIRMETs/SIGMETs

FAA Airport Status
Nat'l Airspace Status
Arrival Demand Charts


Server Software By:
Icecast.org
Liquidsoap